Sirius — WDA2145 — position and weather

sailwx.info

Track history (hours):
 
Tides and Currents Weather Stations Pressure Air Temp Water Temp Dewpoint Dewpoint Depression Visibility Wind Speed Wind Dir Waves Ship Positions

Sirius

More information available from US FCC via Universal Licensing System and Coast Guard Vessel Documentation Center.

Last reported at 2014-Jul-26 00:33 UTC. Time now 2014-Jul-26 01:11 UTC.
Position N 41°27' W 070°36'.

Length 5 m; draft 1.9 m.

Type: Towing. MMSI: 367181040.

Date/timePositionNaut miles runAvg speedWind from/ knotsBaromVisibWave heightAir tempDewpointWater temp
2014-Jul-26 00:33N 41°27' W 070°36'5 5.5
2014-Jul-25 23:33N 41°31' W 070°41'7 6.8
2014-Jul-25 22:30N 41°33' W 070°50'12 1.9
2014-Jul-25 16:19N 41°29' W 070°36'5 6.3
2014-Jul-25 15:32N 41°31' W 070°41'7 7.1
2014-Jul-25 14:32N 41°33' W 070°50'6 4.4
2014-Jul-25 13:12N 41°38' W 070°55'1 0.3
2014-Jul-25 09:24N 41°39' W 070°55'1 1.1
2014-Jul-25 08:33N 41°38' W 070°55'7 6.4
2014-Jul-25 07:31N 41°33' W 070°49'7 7.3
2014-Jul-25 06:31N 41°31' W 070°40'5 4.3
2014-Jul-25 05:26N 41°27' W 070°36'0 0.0
2014-Jul-24 11:16N 41°27' W 070°36'1 1.2
2014-Jul-24 10:31N 41°28' W 070°35'5 4.9
2014-Jul-24 09:28N 41°31' W 070°41'6 6.8
2014-Jul-24 08:34N 41°33' W 070°49'7 5.2
2014-Jul-24 07:08N 41°39' W 070°55'5 1.1
2014-Jul-24 02:33N 41°34' W 070°52'7 6.7
2014-Jul-24 01:33N 41°38' W 070°45'8 8.0
2014-Jul-24 00:31N 41°44' W 070°38'2 2.2
2014-Jul-23 23:33N 41°45' W 070°35'5 2.1
2014-Jul-23 21:12N 41°47' W 070°30'18 0.6
2014-Jul-22 15:13N 41°31' W 070°41'6 3.4
2014-Jul-22 13:32N 41°27' W 070°36'0 0.0
2014-Jul-22 12:33N 41°27' W 070°36'0 0.0
2014-Jul-22 11:33N 41°27' W 070°36'0 0.0
2014-Jul-22 10:33N 41°27' W 070°36'0 0.0
2014-Jul-22 09:33N 41°27' W 070°36'0 0.0
2014-Jul-22 08:33N 41°27' W 070°36'0 0.0
2014-Jul-22 07:33N 41°27' W 070°36'0 0.0
2014-Jul-22 06:32N 41°27' W 070°36'0 0.0
2014-Jul-22 05:33N 41°27' W 070°36'0 0.0
2014-Jul-22 04:33N 41°27' W 070°36'0 0.0
2014-Jul-22 03:33N 41°27' W 070°36'0 0.0
2014-Jul-22 02:33N 41°27' W 070°36'0 0.0
2014-Jul-22 01:32N 41°27' W 070°36'0 0.0
2014-Jul-22 00:32N 41°27' W 070°36'0 0.0
2014-Jul-21 23:31N 41°27' W 070°36'0 0.0
2014-Jul-21 22:32N 41°27' W 070°36'0 0.0
2014-Jul-21 21:33N 41°27' W 070°36'0 0.0
2014-Jul-21 20:33N 41°27' W 070°36'0 0.0
2014-Jul-21 20:14N 41°27' W 070°36'0 0.0
2014-Jul-21 19:33N 41°27' W 070°36'0 0.0
2014-Jul-21 18:33N 41°27' W 070°36'0 0.0
2014-Jul-21 17:31N 41°27' W 070°36'0 0.0
2014-Jul-21 16:33N 41°27' W 070°36'0 0.0
2014-Jul-21 15:33N 41°27' W 070°36'0 0.0
2014-Jul-21 14:33N 41°27' W 070°36'  
2014-Jul-16 21:20N 41°29' W 070°36'4 5.5
2014-Jul-16 20:33N 41°32' W 070°41'  
Track history (hours):
 
Tides and Currents Weather Stations Pressure Air Temp Water Temp Dewpoint Dewpoint Depression Visibility Wind Speed Wind Dir Waves Ship Positions

Sirius

More information available from US FCC via Universal Licensing System and Coast Guard Vessel Documentation Center.

Last reported at 2014-Jul-26 00:33 UTC. Time now 2014-Jul-26 01:11 UTC.
Position N 41°27' W 070°36'.

Length 5 m; draft 1.9 m.

Type: Towing. MMSI: 367181040.

Date/timePositionNaut miles runAvg speedWind from/ knotsBaromVisibWave heightAir tempDewpointWater temp
2014-Jul-26 00:33N 41°27' W 070°36'5 5.5
2014-Jul-25 23:33N 41°31' W 070°41'7 6.8
2014-Jul-25 22:30N 41°33' W 070°50'12 1.9
2014-Jul-25 16:19N 41°29' W 070°36'5 6.3
2014-Jul-25 15:32N 41°31' W 070°41'7 7.1
2014-Jul-25 14:32N 41°33' W 070°50'6 4.4
2014-Jul-25 13:12N 41°38' W 070°55'1 0.3
2014-Jul-25 09:24N 41°39' W 070°55'1 1.1
2014-Jul-25 08:33N 41°38' W 070°55'7 6.4
2014-Jul-25 07:31N 41°33' W 070°49'7 7.3
2014-Jul-25 06:31N 41°31' W 070°40'5 4.3
2014-Jul-25 05:26N 41°27' W 070°36'0 0.0
2014-Jul-24 11:16N 41°27' W 070°36'1 1.2
2014-Jul-24 10:31N 41°28' W 070°35'5 4.9
2014-Jul-24 09:28N 41°31' W 070°41'6 6.8
2014-Jul-24 08:34N 41°33' W 070°49'7 5.2
2014-Jul-24 07:08N 41°39' W 070°55'5 1.1
2014-Jul-24 02:33N 41°34' W 070°52'7 6.7
2014-Jul-24 01:33N 41°38' W 070°45'8 8.0
2014-Jul-24 00:31N 41°44' W 070°38'2 2.2
2014-Jul-23 23:33N 41°45' W 070°35'5 2.1
2014-Jul-23 21:12N 41°47' W 070°30'18 0.6
2014-Jul-22 15:13N 41°31' W 070°41'6 3.4
2014-Jul-22 13:32N 41°27' W 070°36'0 0.0
2014-Jul-22 12:33N 41°27' W 070°36'0 0.0
2014-Jul-22 11:33N 41°27' W 070°36'0 0.0
2014-Jul-22 10:33N 41°27' W 070°36'0 0.0
2014-Jul-22 09:33N 41°27' W 070°36'0 0.0
2014-Jul-22 08:33N 41°27' W 070°36'0 0.0
2014-Jul-22 07:33N 41°27' W 070°36'0 0.0
2014-Jul-22 06:32N 41°27' W 070°36'0 0.0
2014-Jul-22 05:33N 41°27' W 070°36'0 0.0
2014-Jul-22 04:33N 41°27' W 070°36'0 0.0
2014-Jul-22 03:33N 41°27' W 070°36'0 0.0
2014-Jul-22 02:33N 41°27' W 070°36'0 0.0
2014-Jul-22 01:32N 41°27' W 070°36'0 0.0
2014-Jul-22 00:32N 41°27' W 070°36'0 0.0
2014-Jul-21 23:31N 41°27' W 070°36'0 0.0
2014-Jul-21 22:32N 41°27' W 070°36'0 0.0
2014-Jul-21 21:33N 41°27' W 070°36'0 0.0
2014-Jul-21 20:33N 41°27' W 070°36'0 0.0
2014-Jul-21 20:14N 41°27' W 070°36'0 0.0
2014-Jul-21 19:33N 41°27' W 070°36'0 0.0
2014-Jul-21 18:33N 41°27' W 070°36'0 0.0
2014-Jul-21 17:31N 41°27' W 070°36'0 0.0
2014-Jul-21 16:33N 41°27' W 070°36'0 0.0
2014-Jul-21 15:33N 41°27' W 070°36'0 0.0
2014-Jul-21 14:33N 41°27' W 070°36'  
2014-Jul-16 21:20N 41°29' W 070°36'4 5.5
2014-Jul-16 20:33N 41°32' W 070°41'  

Dump ship's entire track history